createdAt,value
2023-01-18T00:02:31.798Z,5.30
2023-01-18T00:07:40.503Z,5.30
2023-01-18T00:12:49.144Z,5.30
2023-01-18T00:17:57.664Z,5.40
2023-01-18T00:23:06.495Z,5.40
2023-01-18T00:28:15.302Z,5.40
2023-01-18T00:33:24.365Z,5.30
2023-01-18T00:38:32.892Z,5.40
2023-01-18T00:43:41.742Z,5.40
2023-01-18T00:48:50.235Z,5.30
2023-01-18T00:53:59.071Z,5.40
2023-01-18T00:59:07.130Z,5.40
2023-01-18T01:04:15.711Z,5.40
2023-01-18T01:09:24.114Z,5.40
2023-01-18T01:14:33.152Z,5.40
2023-01-18T01:19:41.146Z,5.40
2023-01-18T01:24:49.453Z,5.40
2023-01-18T01:29:57.498Z,5.40
2023-01-18T01:35:08.909Z,5.40
2023-01-18T01:40:07.335Z,5.30
2023-01-18T01:45:15.636Z,5.40
2023-01-18T01:50:24.333Z,5.30
2023-01-18T01:55:33.112Z,5.30
2023-01-18T02:00:41.119Z,5.30
2023-01-18T02:05:49.749Z,5.40
2023-01-18T02:10:57.855Z,5.40
2023-01-18T02:16:06.703Z,5.40
2023-01-18T02:21:14.999Z,5.30
2023-01-18T02:26:23.654Z,5.40
2023-01-18T02:31:32.044Z,5.40
2023-01-18T02:36:41.764Z,5.40
2023-01-18T02:41:49.819Z,5.40
2023-01-18T02:46:58.575Z,5.40
2023-01-18T02:52:07.003Z,5.40
2023-01-18T02:57:15.566Z,5.40
2023-01-18T03:02:23.948Z,5.40
2023-01-18T03:07:32.984Z,5.40
2023-01-18T03:12:41.552Z,5.40
2023-01-18T03:17:50.527Z,5.40
2023-01-18T03:22:59.391Z,5.40
2023-01-18T03:28:07.143Z,5.40
2023-01-18T03:33:15.481Z,5.50
2023-01-18T03:38:24.389Z,5.50
2023-01-18T03:43:32.781Z,5.60
2023-01-18T03:48:41.950Z,5.60
2023-01-18T03:53:50.396Z,5.60
2023-01-18T03:58:59.161Z,5.60
2023-01-18T04:04:07.781Z,5.60
2023-01-18T04:09:16.917Z,5.50
2023-01-18T04:14:25.630Z,5.60
2023-01-18T04:19:34.487Z,5.60
2023-01-18T04:24:42.955Z,5.60
2023-01-18T04:29:51.509Z,5.60
2023-01-18T04:35:00.127Z,5.60
2023-01-18T04:40:09.385Z,5.50
2023-01-18T04:45:18.002Z,5.60
2023-01-18T04:50:27.019Z,5.60
2023-01-18T04:55:35.969Z,5.70
2023-01-18T05:00:45.208Z,5.70
2023-01-18T05:05:53.961Z,5.70
2023-01-18T05:11:02.905Z,5.70
2023-01-18T05:16:11.360Z,5.70
2023-01-18T05:21:20.187Z,5.70
2023-01-18T05:26:28.919Z,5.70
2023-01-18T05:31:37.590Z,5.70
2023-01-18T05:36:46.034Z,5.70
2023-01-18T05:41:54.630Z,5.70
2023-01-18T05:47:03.087Z,5.70
2023-01-18T05:52:15.464Z,5.90
2023-01-18T05:57:14.135Z,5.90
2023-01-18T06:02:22.869Z,6.00
2023-01-18T06:07:30.926Z,5.90
2023-01-18T06:12:39.620Z,5.90
2023-01-18T06:17:48.611Z,5.90
2023-01-18T06:22:57.842Z,5.80
2023-01-18T06:28:06.354Z,5.80
2023-01-18T06:33:15.963Z,5.80
2023-01-18T06:38:25.077Z,5.80
2023-01-18T06:43:33.782Z,5.80
2023-01-18T06:48:42.506Z,5.80
2023-01-18T06:53:51.376Z,5.90
2023-01-18T06:58:59.759Z,5.80
2023-01-18T07:04:09.009Z,5.90
2023-01-18T07:09:17.506Z,5.80
2023-01-18T07:14:26.218Z,5.80
2023-01-18T07:19:34.667Z,5.80
2023-01-18T07:24:43.500Z,5.80
2023-01-18T07:29:51.881Z,5.90
2023-01-18T07:35:00.936Z,5.90
2023-01-18T07:40:09.593Z,5.90
2023-01-18T07:45:18.281Z,6.00
2023-01-18T07:50:27.168Z,6.00
2023-01-18T07:55:36.350Z,6.10
2023-01-18T08:00:44.795Z,6.10
2023-01-18T08:05:53.754Z,6.10
2023-01-18T08:11:02.331Z,6.10
2023-01-18T08:16:11.074Z,6.10
2023-01-18T08:21:19.815Z,6.10
2023-01-18T08:26:28.124Z,6.20
2023-01-18T08:31:36.525Z,6.20
2023-01-18T08:36:45.813Z,6.30
2023-01-18T08:41:54.440Z,6.30
2023-01-18T08:47:03.472Z,6.40
2023-01-18T08:52:12.057Z,6.40
2023-01-18T08:57:21.435Z,6.40
2023-01-18T09:02:29.995Z,6.50
2023-01-18T09:07:38.970Z,6.50
2023-01-18T09:12:47.429Z,6.50
2023-01-18T09:17:56.539Z,6.60
2023-01-18T09:23:05.467Z,6.60
2023-01-18T09:28:14.407Z,6.60
2023-01-18T09:33:25.989Z,6.60
2023-01-18T09:38:31.601Z,6.60
2023-01-18T09:43:40.809Z,6.60
2023-01-18T09:48:49.687Z,6.70
2023-01-18T09:53:58.295Z,6.70
2023-01-18T09:59:06.926Z,6.70
2023-01-18T10:04:15.537Z,6.70
2023-01-18T10:09:24.379Z,6.70
2023-01-18T10:14:33.016Z,6.70
2023-01-18T10:19:42.128Z,6.70
2023-01-18T10:24:50.537Z,6.80
2023-01-18T10:29:59.489Z,6.80
2023-01-18T10:35:08.633Z,6.90
2023-01-18T10:40:17.731Z,6.90
2023-01-18T10:45:26.373Z,6.90
2023-01-18T10:50:35.511Z,6.90
2023-01-18T10:55:44.427Z,6.90
2023-01-18T11:00:54.638Z,6.80
2023-01-18T11:05:52.889Z,6.80
2023-01-18T11:11:02.277Z,6.90
2023-01-18T11:16:10.946Z,6.90
2023-01-18T11:21:19.586Z,6.80
2023-01-18T11:26:28.291Z,6.80
2023-01-18T11:31:37.283Z,6.80
2023-01-18T11:36:45.812Z,6.90
2023-01-18T11:41:54.714Z,6.90
2023-01-18T11:47:03.276Z,6.90
2023-01-18T11:52:12.267Z,6.90
2023-01-18T11:57:20.884Z,7.00
2023-01-18T12:02:30.434Z,7.00
2023-01-18T12:07:39.078Z,7.00
2023-01-18T12:12:48.280Z,7.00
2023-01-18T12:18:11.767Z,7.00
2023-01-18T12:23:05.404Z,7.00
2023-01-18T12:28:14.609Z,7.00
2023-01-18T12:33:38.195Z,7.00
2023-01-18T12:38:31.999Z,7.00
2023-01-18T12:43:41.210Z,7.00
2023-01-18T12:48:49.737Z,7.00
2023-01-18T12:53:58.821Z,7.00
2023-01-18T12:59:07.364Z,7.10
2023-01-18T13:04:16.755Z,7.00
2023-01-18T13:09:25.309Z,7.00
2023-01-18T13:14:33.913Z,7.00
2023-01-18T13:19:42.619Z,7.00
2023-01-18T13:24:51.898Z,7.00
2023-01-18T13:30:00.403Z,7.00
2023-01-18T13:35:19.972Z,7.00
2023-01-18T13:40:17.531Z,7.00
2023-01-18T13:45:26.825Z,7.10
2023-01-18T13:50:35.904Z,7.10
2023-01-18T13:55:45.107Z,7.10
2023-01-18T14:00:53.944Z,7.10
2023-01-18T14:06:02.828Z,7.10
2023-01-18T14:11:12.435Z,7.00
2023-01-18T14:16:21.757Z,7.00
2023-01-18T14:21:30.462Z,7.00
2023-01-18T14:26:39.645Z,7.00
2023-01-18T14:31:48.287Z,7.00
2023-01-18T14:36:57.496Z,7.10
2023-01-18T14:42:06.438Z,7.20
2023-01-18T14:47:23.884Z,7.30
2023-01-18T14:52:23.912Z,7.30
2023-01-18T14:57:32.828Z,7.20
2023-01-18T15:02:41.699Z,7.20
2023-01-18T15:07:50.478Z,7.10
2023-01-18T15:12:59.333Z,7.20
2023-01-18T15:18:07.929Z,7.20
2023-01-18T15:23:16.472Z,7.20
2023-01-18T15:28:25.259Z,7.20
2023-01-18T15:33:34.093Z,7.20
2023-01-18T15:38:43.080Z,7.30
2023-01-18T15:43:52.111Z,7.30
2023-01-18T15:49:01.341Z,7.30
2023-01-18T15:54:09.779Z,7.40
2023-01-18T15:59:18.478Z,7.30
2023-01-18T16:04:30.575Z,7.40
2023-01-18T16:09:29.513Z,7.40
2023-01-18T16:14:38.096Z,7.30
2023-01-18T16:19:47.487Z,7.30
2023-01-18T16:24:55.807Z,7.30
2023-01-18T16:30:04.988Z,7.40
2023-01-18T16:35:13.341Z,7.40
2023-01-18T16:40:22.521Z,7.40
2023-01-18T16:45:31.391Z,7.40
2023-01-18T16:50:40.642Z,7.50
2023-01-18T16:55:49.198Z,7.50
2023-01-18T17:00:58.270Z,7.50
2023-01-18T17:06:06.478Z,7.50
2023-01-18T17:11:15.323Z,7.60
2023-01-18T17:16:24.495Z,7.50
2023-01-18T17:21:33.595Z,7.60
2023-01-18T17:26:42.492Z,7.60
2023-01-18T17:31:52.661Z,7.60
2023-01-18T17:36:59.612Z,7.60
2023-01-18T17:42:12.037Z,7.60
2023-01-18T17:47:17.390Z,7.60
2023-01-18T17:52:26.065Z,7.70
2023-01-18T17:57:34.859Z,7.60
2023-01-18T18:02:44.378Z,7.70
2023-01-18T18:07:53.109Z,7.70
2023-01-18T18:13:02.299Z,7.70
2023-01-18T18:18:22.717Z,7.80
2023-01-18T18:23:19.645Z,7.80
2023-01-18T18:28:28.802Z,7.90
2023-01-18T18:33:38.384Z,7.90
2023-01-18T18:38:47.767Z,7.90
2023-01-18T18:43:57.405Z,8.00
2023-01-18T18:49:06.310Z,8.00
2023-01-18T18:54:15.486Z,8.00
2023-01-18T18:59:24.517Z,8.10
2023-01-18T19:04:33.919Z,8.10
2023-01-18T19:09:42.855Z,8.20
2023-01-18T19:14:52.083Z,8.20
2023-01-18T19:20:01.071Z,8.20
2023-01-18T19:25:09.672Z,8.30
2023-01-18T19:30:18.688Z,8.30
2023-01-18T19:35:27.465Z,8.30
2023-01-18T19:40:36.291Z,8.40
2023-01-18T19:45:45.317Z,8.40
2023-01-18T19:50:54.072Z,8.50
2023-01-18T19:56:07.630Z,8.50
2023-01-18T20:01:11.505Z,8.50
2023-01-18T20:06:20.273Z,8.50
2023-01-18T20:11:29.162Z,8.60
2023-01-18T20:16:38.545Z,8.60
2023-01-18T20:21:47.276Z,8.60
2023-01-18T20:26:59.616Z,8.60
2023-01-18T20:32:15.130Z,8.60
2023-01-18T20:37:12.593Z,8.70
2023-01-18T20:42:21.237Z,8.70
2023-01-18T20:47:30.142Z,8.70
2023-01-18T20:52:38.751Z,8.80
2023-01-18T20:57:47.726Z,8.80
2023-01-18T21:02:56.681Z,8.90
2023-01-18T21:08:05.770Z,8.90
2023-01-18T21:13:14.475Z,8.90
2023-01-18T21:18:23.949Z,9.00
2023-01-18T21:23:32.444Z,9.00
2023-01-18T21:28:41.907Z,9.10
2023-01-18T21:33:50.357Z,9.10
2023-01-18T21:38:59.033Z,9.10
2023-01-18T21:44:07.340Z,9.20
2023-01-18T21:49:25.142Z,9.20
2023-01-18T21:54:24.185Z,9.30
2023-01-18T21:59:33.232Z,9.30
2023-01-18T22:04:41.899Z,9.40
2023-01-18T22:10:03.438Z,9.40
2023-01-18T22:14:58.888Z,9.40
2023-01-18T22:20:08.176Z,9.40
2023-01-18T22:25:16.601Z,9.30
2023-01-18T22:30:25.370Z,9.40
2023-01-18T22:35:34.514Z,9.30
2023-01-18T22:40:43.611Z,9.30
2023-01-18T22:45:53.001Z,9.30
2023-01-18T22:51:01.705Z,9.20
2023-01-18T22:56:09.920Z,9.10
2023-01-18T23:01:19.130Z,8.80
2023-01-18T23:06:27.986Z,8.60
2023-01-18T23:11:37.061Z,8.50
2023-01-18T23:16:46.299Z,8.50
2023-01-18T23:21:55.366Z,8.60
2023-01-18T23:27:03.802Z,8.70
2023-01-18T23:32:12.787Z,8.70
2023-01-18T23:37:21.283Z,8.80
2023-01-18T23:42:30.153Z,8.90
2023-01-18T23:47:38.980Z,8.90
2023-01-18T23:52:48.122Z,8.70
2023-01-18T23:57:56.942Z,8.60
